This is the latest recevied weather packets stored in our database for station/object F6DEV-13. If no packets are shown the sender has not sent any weather packets the latest 1 day(s).
| Time | Temp. | Humidity | Pressure | Rain* | Wind** | Luminosity | Snow |
|---|---|---|---|---|---|---|---|
| 1778099166 | 11.67° C | 70% | 1012 hPa | 0 mm | - | - | - |
| 1778097973 | 11.67° C | 66% | 1012 hPa | 0 mm | - | - | - |
| 1778093525 | 13.33° C | 59% | 1011 hPa | 0 mm | - | - | - |
| 1778091937 | 13.33° C | 59% | 1011 hPa | 0 mm | - | - | - |
| 1778091638 | 13.33° C | 58% | 1011 hPa | 0 mm | - | - | - |
| 1778091375 | 13.33° C | 58% | 1011 hPa | 0 mm | - | - | - |
| 1778090705 | 13.33° C | 57% | 1011 hPa | 0 mm | - | - | - |
| 1778089719 | 13.89° C | 56% | 1011 hPa | 0 mm | - | - | - |
| 1778089084 | 13.89° C | 54% | 1011 hPa | 0 mm | - | - | - |
| 1778088426 | 13.89° C | 56% | 1011 hPa | 0 mm | - | - | - |
| 1778087500 | 13.89° C | 58% | 1011 hPa | 0 mm | - | - | - |
| 1778086840 | 14.44° C | 55% | 1010 hPa | 0 mm | - | - | - |
| 1778084981 | 14.44° C | 59% | 1010 hPa | 0 mm | - | - | - |
| 1778084675 | 13.89° C | 58% | 1010 hPa | 0 mm | - | - | - |
| 1778083743 | 13.89° C | 60% | 1010 hPa | 0 mm | - | - | - |
| 1778083115 | 13.89° C | 59% | 1010 hPa | 0 mm | - | - | - |
| 1778080634 | 14.44° C | 58% | 1009 hPa | 0 mm | - | - | - |
| 1778079992 | 15° C | 56% | 1009 hPa | 0 mm | - | - | - |
| 1778078403 | 15.56° C | 53% | 1009 hPa | 0 mm | - | - | - |
| 1778078113 | 15.56° C | 54% | 1009 hPa | 0 mm | - | - | - |
| 1778077782 | 15.56° C | 53% | 1009 hPa | 0 mm | - | - | - |
| 1778075891 | 16.67° C | 46% | 1009 hPa | 0 mm | - | - | - |
| 1778074930 | 16.11° C | 47% | 1009 hPa | 0 mm | - | - | - |
| 1778074627 | 16.67° C | 46% | 1009 hPa | 0 mm | - | - | - |
| 1778073037 | 16.67° C | 45% | 1009.1 hPa | 0 mm | - | - | - |
* Rain latest hour (hover to see other rain measurements)
** Current wind speed in m/s (hover to see current wind gust speed)